sensor_id;sensor_type;location;lat;lon;timestamp;P1;durP1;ratioP1;P2;durP2;ratioP2
49015;SDS011;34830;44.064;12.566;2023-12-29T00:01:59;45.38;;;28.02;;
49015;SDS011;34830;44.064;12.566;2023-12-29T00:04:25;48.80;;;28.40;;
49015;SDS011;34830;44.064;12.566;2023-12-29T00:06:52;47.42;;;29.00;;
49015;SDS011;34830;44.064;12.566;2023-12-29T00:09:18;43.95;;;29.10;;
49015;SDS011;34830;44.064;12.566;2023-12-29T00:11:47;41.72;;;28.35;;
49015;SDS011;34830;44.064;12.566;2023-12-29T00:14:13;48.67;;;29.55;;
49015;SDS011;34830;44.064;12.566;2023-12-29T00:16:40;47.00;;;29.65;;
49015;SDS011;34830;44.064;12.566;2023-12-29T00:19:06;43.55;;;29.30;;
49015;SDS011;34830;44.064;12.566;2023-12-29T00:21:32;41.83;;;28.85;;
49015;SDS011;34830;44.064;12.566;2023-12-29T00:23:58;47.17;;;28.02;;
49015;SDS011;34830;44.064;12.566;2023-12-29T00:26:24;43.97;;;27.30;;
49015;SDS011;34830;44.064;12.566;2023-12-29T00:28:56;41.65;;;27.17;;
49015;SDS011;34830;44.064;12.566;2023-12-29T00:31:23;47.70;;;30.27;;
49015;SDS011;34830;44.064;12.566;2023-12-29T00:33:50;48.22;;;31.17;;
49015;SDS011;34830;44.064;12.566;2023-12-29T00:36:19;41.88;;;28.67;;
49015;SDS011;34830;44.064;12.566;2023-12-29T00:38:45;46.33;;;30.38;;
49015;SDS011;34830;44.064;12.566;2023-12-29T00:41:11;42.63;;;29.92;;
49015;SDS011;34830;44.064;12.566;2023-12-29T00:43:38;42.35;;;28.65;;
49015;SDS011;34830;44.064;12.566;2023-12-29T00:46:04;42.22;;;27.98;;
49015;SDS011;34830;44.064;12.566;2023-12-29T00:48:31;41.80;;;28.73;;
49015;SDS011;34830;44.064;12.566;2023-12-29T00:50:57;46.70;;;30.48;;
49015;SDS011;34830;44.064;12.566;2023-12-29T00:53:23;45.33;;;29.42;;
49015;SDS011;34830;44.064;12.566;2023-12-29T00:55:49;54.60;;;34.80;;
49015;SDS011;34830;44.064;12.566;2023-12-29T00:58:15;47.78;;;32.25;;
49015;SDS011;34830;44.064;12.566;2023-12-29T01:00:41;45.17;;;29.88;;
49015;SDS011;34830;44.064;12.566;2023-12-29T01:03:07;49.88;;;29.63;;
49015;SDS011;34830;44.064;12.566;2023-12-29T01:05:34;47.70;;;30.20;;
49015;SDS011;34830;44.064;12.566;2023-12-29T01:08:00;40.63;;;28.65;;
49015;SDS011;34830;44.064;12.566;2023-12-29T01:10:26;44.60;;;30.80;;
49015;SDS011;34830;44.064;12.566;2023-12-29T01:12:52;45.58;;;29.20;;
49015;SDS011;34830;44.064;12.566;2023-12-29T01:15:18;46.35;;;30.23;;
49015;SDS011;34830;44.064;12.566;2023-12-29T01:17:46;49.05;;;31.55;;
49015;SDS011;34830;44.064;12.566;2023-12-29T01:20:13;45.72;;;30.88;;
49015;SDS011;34830;44.064;12.566;2023-12-29T01:22:39;53.50;;;30.90;;
49015;SDS011;34830;44.064;12.566;2023-12-29T01:25:05;46.30;;;31.27;;
49015;SDS011;34830;44.064;12.566;2023-12-29T01:27:31;49.70;;;31.77;;
49015;SDS011;34830;44.064;12.566;2023-12-29T01:29:58;48.55;;;31.67;;
49015;SDS011;34830;44.064;12.566;2023-12-29T01:32:25;49.42;;;30.75;;
49015;SDS011;34830;44.064;12.566;2023-12-29T01:34:52;47.38;;;31.75;;
49015;SDS011;34830;44.064;12.566;2023-12-29T01:37:18;44.15;;;29.52;;
49015;SDS011;34830;44.064;12.566;2023-12-29T01:39:44;50.70;;;33.60;;
49015;SDS011;34830;44.064;12.566;2023-12-29T01:42:10;45.15;;;29.65;;
49015;SDS011;34830;44.064;12.566;2023-12-29T01:44:37;43.08;;;28.92;;
49015;SDS011;34830;44.064;12.566;2023-12-29T01:47:04;43.28;;;28.75;;
49015;SDS011;34830;44.064;12.566;2023-12-29T01:49:37;44.25;;;30.75;;
49015;SDS011;34830;44.064;12.566;2023-12-29T01:52:04;44.20;;;29.33;;
49015;SDS011;34830;44.064;12.566;2023-12-29T01:54:31;42.75;;;29.30;;
49015;SDS011;34830;44.064;12.566;2023-12-29T01:56:59;51.42;;;28.85;;
49015;SDS011;34830;44.064;12.566;2023-12-29T01:59:26;48.00;;;30.67;;
49015;SDS011;34830;44.064;12.566;2023-12-29T02:01:56;45.28;;;31.48;;
49015;SDS011;34830;44.064;12.566;2023-12-29T02:04:23;47.42;;;30.13;;
49015;SDS011;34830;44.064;12.566;2023-12-29T02:06:50;48.83;;;30.15;;
49015;SDS011;34830;44.064;12.566;2023-12-29T02:09:17;49.25;;;31.35;;
49015;SDS011;34830;44.064;12.566;2023-12-29T02:11:44;41.53;;;30.08;;
49015;SDS011;34830;44.064;12.566;2023-12-29T02:14:10;44.67;;;30.23;;
49015;SDS011;34830;44.064;12.566;2023-12-29T02:19:40;44.53;;;30.25;;
49015;SDS011;34830;44.064;12.566;2023-12-29T02:22:08;43.95;;;29.08;;
49015;SDS011;34830;44.064;12.566;2023-12-29T02:24:34;45.83;;;29.38;;
49015;SDS011;34830;44.064;12.566;2023-12-29T02:29:44;42.10;;;29.00;;
49015;SDS011;34830;44.064;12.566;2023-12-29T02:32:16;43.25;;;29.80;;
49015;SDS011;34830;44.064;12.566;2023-12-29T02:34:44;48.47;;;28.92;;
49015;SDS011;34830;44.064;12.566;2023-12-29T02:37:11;40.83;;;28.75;;
49015;SDS011;34830;44.064;12.566;2023-12-29T02:39:37;41.80;;;27.95;;
49015;SDS011;34830;44.064;12.566;2023-12-29T02:42:04;44.15;;;27.52;;
49015;SDS011;34830;44.064;12.566;2023-12-29T02:44:30;40.67;;;27.77;;
49015;SDS011;34830;44.064;12.566;2023-12-29T02:46:56;45.30;;;28.65;;
49015;SDS011;34830;44.064;12.566;2023-12-29T02:49:23;40.67;;;27.80;;
49015;SDS011;34830;44.064;12.566;2023-12-29T02:51:49;41.40;;;26.83;;
49015;SDS011;34830;44.064;12.566;2023-12-29T02:54:16;44.58;;;27.13;;
49015;SDS011;34830;44.064;12.566;2023-12-29T02:56:42;47.53;;;28.95;;
49015;SDS011;34830;44.064;12.566;2023-12-29T02:59:08;44.13;;;27.33;;
49015;SDS011;34830;44.064;12.566;2023-12-29T03:01:34;39.70;;;26.95;;
49015;SDS011;34830;44.064;12.566;2023-12-29T03:04:00;42.30;;;27.90;;
49015;SDS011;34830;44.064;12.566;2023-12-29T03:06:27;39.95;;;27.45;;
49015;SDS011;34830;44.064;12.566;2023-12-29T03:08:53;41.28;;;26.20;;
49015;SDS011;34830;44.064;12.566;2023-12-29T03:11:20;38.50;;;26.10;;
49015;SDS011;34830;44.064;12.566;2023-12-29T03:13:46;37.95;;;25.90;;
49015;SDS011;34830;44.064;12.566;2023-12-29T03:16:12;39.55;;;25.42;;
49015;SDS011;34830;44.064;12.566;2023-12-29T03:18:39;38.85;;;25.23;;
49015;SDS011;34830;44.064;12.566;2023-12-29T03:21:06;36.40;;;25.02;;
49015;SDS011;34830;44.064;12.566;2023-12-29T03:23:33;37.60;;;24.88;;
49015;SDS011;34830;44.064;12.566;2023-12-29T03:26:00;43.95;;;26.05;;
49015;SDS011;34830;44.064;12.566;2023-12-29T03:28:26;36.20;;;25.05;;
49015;SDS011;34830;44.064;12.566;2023-12-29T03:30:52;39.50;;;25.80;;
49015;SDS011;34830;44.064;12.566;2023-12-29T03:33:18;40.72;;;26.13;;
49015;SDS011;34830;44.064;12.566;2023-12-29T03:35:44;42.83;;;25.63;;
49015;SDS011;34830;44.064;12.566;2023-12-29T03:38:10;39.72;;;25.77;;
49015;SDS011;34830;44.064;12.566;2023-12-29T03:40:36;38.95;;;27.40;;
49015;SDS011;34830;44.064;12.566;2023-12-29T03:43:02;42.42;;;26.08;;
49015;SDS011;34830;44.064;12.566;2023-12-29T03:45:28;40.33;;;25.40;;
49015;SDS011;34830;44.064;12.566;2023-12-29T03:47:54;41.75;;;26.10;;
49015;SDS011;34830;44.064;12.566;2023-12-29T03:50:20;36.10;;;25.13;;
49015;SDS011;34830;44.064;12.566;2023-12-29T03:52:49;36.97;;;25.33;;
49015;SDS011;34830;44.064;12.566;2023-12-29T03:55:15;36.60;;;25.20;;
49015;SDS011;34830;44.064;12.566;2023-12-29T03:57:44;39.90;;;25.35;;
49015;SDS011;34830;44.064;12.566;2023-12-29T04:00:14;41.03;;;27.15;;
49015;SDS011;34830;44.064;12.566;2023-12-29T04:02:40;41.10;;;26.85;;
49015;SDS011;34830;44.064;12.566;2023-12-29T04:05:08;37.85;;;25.25;;
49015;SDS011;34830;44.064;12.566;2023-12-29T04:07:34;40.78;;;26.77;;
49015;SDS011;34830;44.064;12.566;2023-12-29T04:10:00;43.88;;;27.10;;
49015;SDS011;34830;44.064;12.566;2023-12-29T04:12:26;39.58;;;27.67;;
49015;SDS011;34830;44.064;12.566;2023-12-29T04:14:52;45.75;;;27.65;;
49015;SDS011;34830;44.064;12.566;2023-12-29T04:17:18;47.78;;;26.83;;
49015;SDS011;34830;44.064;12.566;2023-12-29T04:19:44;38.67;;;25.95;;
49015;SDS011;34830;44.064;12.566;2023-12-29T04:22:11;42.50;;;27.65;;
49015;SDS011;34830;44.064;12.566;2023-12-29T04:24:40;46.88;;;27.45;;
49015;SDS011;34830;44.064;12.566;2023-12-29T04:27:07;52.05;;;28.98;;
49015;SDS011;34830;44.064;12.566;2023-12-29T04:29:34;39.15;;;25.75;;
49015;SDS011;34830;44.064;12.566;2023-12-29T04:32:01;38.50;;;26.42;;
49015;SDS011;34830;44.064;12.566;2023-12-29T04:34:27;39.95;;;25.40;;
49015;SDS011;34830;44.064;12.566;2023-12-29T04:36:55;43.63;;;27.13;;
49015;SDS011;34830;44.064;12.566;2023-12-29T04:39:21;42.95;;;25.52;;
49015;SDS011;34830;44.064;12.566;2023-12-29T04:41:47;42.28;;;26.80;;
49015;SDS011;34830;44.064;12.566;2023-12-29T04:44:13;37.78;;;25.20;;
49015;SDS011;34830;44.064;12.566;2023-12-29T04:46:39;38.35;;;25.35;;
49015;SDS011;34830;44.064;12.566;2023-12-29T04:49:05;42.63;;;27.10;;
49015;SDS011;34830;44.064;12.566;2023-12-29T04:51:31;48.70;;;27.48;;
49015;SDS011;34830;44.064;12.566;2023-12-29T04:53:57;44.10;;;27.17;;
49015;SDS011;34830;44.064;12.566;2023-12-29T04:56:23;42.33;;;27.80;;
49015;SDS011;34830;44.064;12.566;2023-12-29T04:58:51;48.67;;;28.20;;
49015;SDS011;34830;44.064;12.566;2023-12-29T05:01:17;40.17;;;27.02;;
49015;SDS011;34830;44.064;12.566;2023-12-29T05:03:43;44.92;;;26.42;;
49015;SDS011;34830;44.064;12.566;2023-12-29T05:06:09;42.30;;;27.27;;
49015;SDS011;34830;44.064;12.566;2023-12-29T05:08:35;38.30;;;25.85;;
49015;SDS011;34830;44.064;12.566;2023-12-29T05:11:01;49.50;;;28.13;;
49015;SDS011;34830;44.064;12.566;2023-12-29T05:13:27;44.33;;;28.23;;
49015;SDS011;34830;44.064;12.566;2023-12-29T05:15:53;43.55;;;26.75;;
49015;SDS011;34830;44.064;12.566;2023-12-29T05:18:19;45.40;;;27.83;;
49015;SDS011;34830;44.064;12.566;2023-12-29T05:20:46;44.30;;;27.85;;
49015;SDS011;34830;44.064;12.566;2023-12-29T05:23:12;45.70;;;28.00;;
49015;SDS011;34830;44.064;12.566;2023-12-29T05:25:38;42.65;;;27.80;;
49015;SDS011;34830;44.064;12.566;2023-12-29T05:28:05;47.00;;;27.52;;
49015;SDS011;34830;44.064;12.566;2023-12-29T05:30:31;46.63;;;28.00;;
49015;SDS011;34830;44.064;12.566;2023-12-29T05:32:57;52.63;;;29.95;;
49015;SDS011;34830;44.064;12.566;2023-12-29T05:35:24;42.35;;;27.17;;
49015;SDS011;34830;44.064;12.566;2023-12-29T05:37:50;45.80;;;28.02;;
49015;SDS011;34830;44.064;12.566;2023-12-29T05:40:16;42.90;;;27.30;;
49015;SDS011;34830;44.064;12.566;2023-12-29T05:42:42;40.85;;;26.02;;
49015;SDS011;34830;44.064;12.566;2023-12-29T05:45:08;37.80;;;25.63;;
49015;SDS011;34830;44.064;12.566;2023-12-29T05:47:35;46.55;;;27.27;;
49015;SDS011;34830;44.064;12.566;2023-12-29T05:50:01;43.95;;;26.88;;
49015;SDS011;34830;44.064;12.566;2023-12-29T05:52:27;44.60;;;27.52;;
49015;SDS011;34830;44.064;12.566;2023-12-29T05:54:54;40.28;;;25.83;;
49015;SDS011;34830;44.064;12.566;2023-12-29T05:57:20;42.60;;;28.02;;
49015;SDS011;34830;44.064;12.566;2023-12-29T05:59:46;43.53;;;26.52;;
49015;SDS011;34830;44.064;12.566;2023-12-29T06:02:12;41.28;;;26.77;;
49015;SDS011;34830;44.064;12.566;2023-12-29T06:04:38;46.20;;;27.88;;
49015;SDS011;34830;44.064;12.566;2023-12-29T06:07:05;43.95;;;27.55;;
49015;SDS011;34830;44.064;12.566;2023-12-29T06:09:31;42.53;;;25.80;;
49015;SDS011;34830;44.064;12.566;2023-12-29T06:11:57;38.63;;;23.67;;
49015;SDS011;34830;44.064;12.566;2023-12-29T06:14:23;40.88;;;20.98;;
49015;SDS011;34830;44.064;12.566;2023-12-29T06:16:49;32.45;;;20.45;;
49015;SDS011;34830;44.064;12.566;2023-12-29T06:19:15;31.35;;;19.00;;
49015;SDS011;34830;44.064;12.566;2023-12-29T06:21:42;30.63;;;18.17;;
49015;SDS011;34830;44.064;12.566;2023-12-29T06:24:11;26.50;;;16.50;;
49015;SDS011;34830;44.064;12.566;2023-12-29T06:26:37;25.90;;;15.57;;
49015;SDS011;34830;44.064;12.566;2023-12-29T06:29:09;27.92;;;16.60;;
49015;SDS011;34830;44.064;12.566;2023-12-29T06:31:35;27.95;;;14.40;;
49015;SDS011;34830;44.064;12.566;2023-12-29T06:34:06;24.38;;;14.38;;
49015;SDS011;34830;44.064;12.566;2023-12-29T06:36:32;23.00;;;13.23;;
49015;SDS011;34830;44.064;12.566;2023-12-29T06:38:58;27.90;;;15.25;;
49015;SDS011;34830;44.064;12.566;2023-12-29T06:41:25;27.00;;;15.35;;
49015;SDS011;34830;44.064;12.566;2023-12-29T06:43:51;23.23;;;14.15;;
49015;SDS011;34830;44.064;12.566;2023-12-29T06:46:17;23.83;;;14.10;;
49015;SDS011;34830;44.064;12.566;2023-12-29T06:48:43;22.13;;;13.52;;
49015;SDS011;34830;44.064;12.566;2023-12-29T06:51:15;17.92;;;11.85;;
49015;SDS011;34830;44.064;12.566;2023-12-29T06:53:41;16.23;;;10.25;;
49015;SDS011;34830;44.064;12.566;2023-12-29T06:56:11;12.18;;;7.25;;
49015;SDS011;34830;44.064;12.566;2023-12-29T06:58:38;13.47;;;7.50;;
49015;SDS011;34830;44.064;12.566;2023-12-29T07:01:04;18.42;;;9.77;;
49015;SDS011;34830;44.064;12.566;2023-12-29T07:03:30;23.75;;;13.25;;
49015;SDS011;34830;44.064;12.566;2023-12-29T07:05:57;21.50;;;13.75;;
49015;SDS011;34830;44.064;12.566;2023-12-29T07:08:23;16.85;;;9.77;;
49015;SDS011;34830;44.064;12.566;2023-12-29T07:10:49;18.67;;;10.45;;
49015;SDS011;34830;44.064;12.566;2023-12-29T07:13:16;19.02;;;11.43;;
49015;SDS011;34830;44.064;12.566;2023-12-29T07:15:43;18.10;;;9.52;;
49015;SDS011;34830;44.064;12.566;2023-12-29T07:18:09;13.82;;;9.00;;
49015;SDS011;34830;44.064;12.566;2023-12-29T07:20:36;24.67;;;12.52;;
49015;SDS011;34830;44.064;12.566;2023-12-29T07:23:03;23.52;;;13.02;;
49015;SDS011;34830;44.064;12.566;2023-12-29T07:25:30;19.83;;;12.10;;
49015;SDS011;34830;44.064;12.566;2023-12-29T07:27:56;19.05;;;12.02;;
49015;SDS011;34830;44.064;12.566;2023-12-29T07:30:22;18.42;;;12.80;;
49015;SDS011;34830;44.064;12.566;2023-12-29T07:32:48;22.73;;;12.55;;
49015;SDS011;34830;44.064;12.566;2023-12-29T07:35:15;22.85;;;12.73;;
49015;SDS011;34830;44.064;12.566;2023-12-29T07:37:43;24.60;;;11.85;;
49015;SDS011;34830;44.064;12.566;2023-12-29T07:40:10;33.35;;;14.35;;
49015;SDS011;34830;44.064;12.566;2023-12-29T07:42:37;23.70;;;13.75;;
49015;SDS011;34830;44.064;12.566;2023-12-29T07:45:04;30.00;;;17.85;;
49015;SDS011;34830;44.064;12.566;2023-12-29T07:47:31;21.23;;;13.93;;
49015;SDS011;34830;44.064;12.566;2023-12-29T07:49:58;23.58;;;14.35;;
49015;SDS011;34830;44.064;12.566;2023-12-29T07:52:24;21.25;;;13.15;;
49015;SDS011;34830;44.064;12.566;2023-12-29T07:54:50;20.42;;;13.02;;
49015;SDS011;34830;44.064;12.566;2023-12-29T07:57:16;23.05;;;13.60;;
49015;SDS011;34830;44.064;12.566;2023-12-29T07:59:42;25.38;;;13.02;;
49015;SDS011;34830;44.064;12.566;2023-12-29T08:02:08;24.50;;;13.95;;
49015;SDS011;34830;44.064;12.566;2023-12-29T08:04:35;34.65;;;13.85;;
49015;SDS011;34830;44.064;12.566;2023-12-29T08:07:01;18.85;;;13.00;;
49015;SDS011;34830;44.064;12.566;2023-12-29T08:09:27;23.05;;;13.02;;
49015;SDS011;34830;44.064;12.566;2023-12-29T08:11:53;24.13;;;13.45;;
49015;SDS011;34830;44.064;12.566;2023-12-29T08:14:19;24.25;;;11.63;;
49015;SDS011;34830;44.064;12.566;2023-12-29T08:16:45;30.38;;;13.20;;
49015;SDS011;34830;44.064;12.566;2023-12-29T08:19:12;28.23;;;12.43;;
49015;SDS011;34830;44.064;12.566;2023-12-29T08:21:38;30.48;;;15.05;;
49015;SDS011;34830;44.064;12.566;2023-12-29T08:24:04;25.98;;;12.10;;
49015;SDS011;34830;44.064;12.566;2023-12-29T08:26:30;26.60;;;11.70;;
49015;SDS011;34830;44.064;12.566;2023-12-29T08:28:56;23.63;;;10.85;;
49015;SDS011;34830;44.064;12.566;2023-12-29T08:31:23;17.23;;;9.55;;
49015;SDS011;34830;44.064;12.566;2023-12-29T08:33:49;10.95;;;5.50;;
49015;SDS011;34830;44.064;12.566;2023-12-29T08:36:17;17.80;;;7.95;;
49015;SDS011;34830;44.064;12.566;2023-12-29T08:38:44;30.08;;;12.48;;
49015;SDS011;34830;44.064;12.566;2023-12-29T08:41:10;18.63;;;8.20;;
49015;SDS011;34830;44.064;12.566;2023-12-29T08:43:39;13.70;;;6.55;;
49015;SDS011;34830;44.064;12.566;2023-12-29T08:46:05;17.10;;;5.75;;
49015;SDS011;34830;44.064;12.566;2023-12-29T08:48:31;6.78;;;4.45;;
49015;SDS011;34830;44.064;12.566;2023-12-29T08:50:57;9.45;;;4.20;;
49015;SDS011;34830;44.064;12.566;2023-12-29T08:53:23;7.85;;;5.00;;
49015;SDS011;34830;44.064;12.566;2023-12-29T08:55:49;10.98;;;4.78;;
49015;SDS011;34830;44.064;12.566;2023-12-29T08:58:15;9.73;;;5.40;;
49015;SDS011;34830;44.064;12.566;2023-12-29T09:00:41;13.07;;;4.78;;
49015;SDS011;34830;44.064;12.566;2023-12-29T09:03:08;13.57;;;4.20;;
49015;SDS011;34830;44.064;12.566;2023-12-29T09:05:34;8.85;;;4.38;;
49015;SDS011;34830;44.064;12.566;2023-12-29T09:08:00;11.00;;;4.75;;
49015;SDS011;34830;44.064;12.566;2023-12-29T09:10:26;18.98;;;5.32;;
49015;SDS011;34830;44.064;12.566;2023-12-29T09:12:52;9.80;;;4.45;;
49015;SDS011;34830;44.064;12.566;2023-12-29T09:15:18;11.70;;;6.32;;
49015;SDS011;34830;44.064;12.566;2023-12-29T09:17:44;14.70;;;7.97;;
49015;SDS011;34830;44.064;12.566;2023-12-29T09:20:10;13.23;;;8.38;;
49015;SDS011;34830;44.064;12.566;2023-12-29T09:22:36;14.30;;;8.52;;
49015;SDS011;34830;44.064;12.566;2023-12-29T09:25:03;13.95;;;9.60;;
49015;SDS011;34830;44.064;12.566;2023-12-29T09:27:29;14.85;;;9.82;;
49015;SDS011;34830;44.064;12.566;2023-12-29T09:29:55;17.95;;;10.70;;
49015;SDS011;34830;44.064;12.566;2023-12-29T09:32:22;18.05;;;11.13;;
49015;SDS011;34830;44.064;12.566;2023-12-29T09:34:48;20.75;;;11.65;;
49015;SDS011;34830;44.064;12.566;2023-12-29T09:37:14;17.88;;;11.60;;
49015;SDS011;34830;44.064;12.566;2023-12-29T09:39:40;15.77;;;10.52;;
49015;SDS011;34830;44.064;12.566;2023-12-29T09:42:07;21.05;;;11.98;;
49015;SDS011;34830;44.064;12.566;2023-12-29T09:44:35;17.13;;;11.93;;
49015;SDS011;34830;44.064;12.566;2023-12-29T09:47:02;23.63;;;13.65;;
49015;SDS011;34830;44.064;12.566;2023-12-29T09:49:38;23.98;;;15.45;;
49015;SDS011;34830;44.064;12.566;2023-12-29T09:52:07;31.88;;;19.63;;
49015;SDS011;34830;44.064;12.566;2023-12-29T09:54:35;33.17;;;22.98;;
49015;SDS011;34830;44.064;12.566;2023-12-29T09:57:03;42.20;;;25.20;;
49015;SDS011;34830;44.064;12.566;2023-12-29T09:59:29;45.38;;;26.35;;
49015;SDS011;34830;44.064;12.566;2023-12-29T10:01:58;51.75;;;28.60;;
49015;SDS011;34830;44.064;12.566;2023-12-29T10:04:24;43.42;;;29.00;;
49015;SDS011;34830;44.064;12.566;2023-12-29T10:06:51;47.83;;;30.25;;
49015;SDS011;34830;44.064;12.566;2023-12-29T10:09:18;50.63;;;32.65;;
49015;SDS011;34830;44.064;12.566;2023-12-29T10:11:46;51.08;;;34.83;;
49015;SDS011;34830;44.064;12.566;2023-12-29T10:14:23;69.40;;;37.88;;
49015;SDS011;34830;44.064;12.566;2023-12-29T10:16:52;56.72;;;39.67;;
49015;SDS011;34830;44.064;12.566;2023-12-29T10:25:08;72.57;;;43.53;;
49015;SDS011;34830;44.064;12.566;2023-12-29T10:27:35;65.57;;;44.35;;
49015;SDS011;34830;44.064;12.566;2023-12-29T10:30:01;63.97;;;42.10;;
49015;SDS011;34830;44.064;12.566;2023-12-29T10:32:29;60.78;;;42.85;;
49015;SDS011;34830;44.064;12.566;2023-12-29T10:35:17;62.22;;;42.15;;
49015;SDS011;34830;44.064;12.566;2023-12-29T10:37:42;67.72;;;44.70;;
49015;SDS011;34830;44.064;12.566;2023-12-29T10:40:08;63.80;;;43.67;;
49015;SDS011;34830;44.064;12.566;2023-12-29T10:42:34;63.22;;;43.83;;
49015;SDS011;34830;44.064;12.566;2023-12-29T10:45:04;70.63;;;42.67;;
49015;SDS011;34830;44.064;12.566;2023-12-29T10:47:31;62.33;;;42.63;;
49015;SDS011;34830;44.064;12.566;2023-12-29T10:49:58;64.95;;;44.00;;
49015;SDS011;34830;44.064;12.566;2023-12-29T10:52:25;63.40;;;44.50;;
49015;SDS011;34830;44.064;12.566;2023-12-29T10:54:54;70.30;;;46.25;;
49015;SDS011;34830;44.064;12.566;2023-12-29T10:57:30;71.80;;;45.63;;
49015;SDS011;34830;44.064;12.566;2023-12-29T10:59:56;65.60;;;43.97;;
49015;SDS011;34830;44.064;12.566;2023-12-29T11:02:22;69.20;;;44.38;;
49015;SDS011;34830;44.064;12.566;2023-12-29T11:04:48;64.90;;;44.92;;
49015;SDS011;34830;44.064;12.566;2023-12-29T11:07:18;73.88;;;49.08;;
49015;SDS011;34830;44.064;12.566;2023-12-29T11:09:59;72.97;;;47.27;;
49015;SDS011;34830;44.064;12.566;2023-12-29T11:12:29;71.53;;;47.28;;
49015;SDS011;34830;44.064;12.566;2023-12-29T11:14:57;70.35;;;45.95;;
49015;SDS011;34830;44.064;12.566;2023-12-29T11:17:23;69.25;;;47.00;;
49015;SDS011;34830;44.064;12.566;2023-12-29T11:19:50;70.68;;;45.97;;
49015;SDS011;34830;44.064;12.566;2023-12-29T11:22:16;73.55;;;49.00;;
49015;SDS011;34830;44.064;12.566;2023-12-29T11:24:46;70.82;;;49.60;;
49015;SDS011;34830;44.064;12.566;2023-12-29T11:27:13;69.15;;;48.83;;
49015;SDS011;34830;44.064;12.566;2023-12-29T11:29:40;80.43;;;49.78;;
49015;SDS011;34830;44.064;12.566;2023-12-29T11:32:11;78.93;;;51.17;;
49015;SDS011;34830;44.064;12.566;2023-12-29T11:34:46;81.50;;;50.45;;
49015;SDS011;34830;44.064;12.566;2023-12-29T11:39:56;78.43;;;49.00;;
49015;SDS011;34830;44.064;12.566;2023-12-29T11:42:28;70.20;;;46.00;;
49015;SDS011;34830;44.064;12.566;2023-12-29T11:44:57;80.18;;;49.78;;
49015;SDS011;34830;44.064;12.566;2023-12-29T11:47:38;75.72;;;50.63;;
49015;SDS011;34830;44.064;12.566;2023-12-29T11:50:05;74.07;;;48.65;;
49015;SDS011;34830;44.064;12.566;2023-12-29T11:52:38;74.65;;;48.28;;
49015;SDS011;34830;44.064;12.566;2023-12-29T11:55:12;77.80;;;49.60;;
49015;SDS011;34830;44.064;12.566;2023-12-29T11:57:40;79.55;;;51.20;;
49015;SDS011;34830;44.064;12.566;2023-12-29T12:00:07;76.47;;;49.35;;
49015;SDS011;34830;44.064;12.566;2023-12-29T12:02:40;76.18;;;50.67;;
49015;SDS011;34830;44.064;12.566;2023-12-29T12:05:08;80.50;;;49.38;;
49015;SDS011;34830;44.064;12.566;2023-12-29T12:12:46;74.75;;;51.55;;
49015;SDS011;34830;44.064;12.566;2023-12-29T12:18:10;89.40;;;53.33;;
49015;SDS011;34830;44.064;12.566;2023-12-29T12:20:38;81.45;;;52.83;;
49015;SDS011;34830;44.064;12.566;2023-12-29T12:23:07;84.70;;;52.83;;
49015;SDS011;34830;44.064;12.566;2023-12-29T12:25:37;76.72;;;50.70;;
49015;SDS011;34830;44.064;12.566;2023-12-29T12:28:05;82.43;;;50.83;;
49015;SDS011;34830;44.064;12.566;2023-12-29T12:30:33;80.78;;;51.03;;
49015;SDS011;34830;44.064;12.566;2023-12-29T12:33:01;83.28;;;52.08;;
49015;SDS011;34830;44.064;12.566;2023-12-29T12:35:28;83.47;;;54.03;;
49015;SDS011;34830;44.064;12.566;2023-12-29T12:40:40;80.07;;;50.90;;
49015;SDS011;34830;44.064;12.566;2023-12-29T12:43:06;77.05;;;50.80;;
49015;SDS011;34830;44.064;12.566;2023-12-29T12:45:42;79.28;;;52.05;;
49015;SDS011;34830;44.064;12.566;2023-12-29T12:48:14;85.63;;;51.95;;
49015;SDS011;34830;44.064;12.566;2023-12-29T12:50:45;77.47;;;52.03;;
49015;SDS011;34830;44.064;12.566;2023-12-29T12:53:13;82.60;;;53.38;;
49015;SDS011;34830;44.064;12.566;2023-12-29T12:55:49;72.78;;;48.95;;
49015;SDS011;34830;44.064;12.566;2023-12-29T12:58:18;76.47;;;50.33;;
49015;SDS011;34830;44.064;12.566;2023-12-29T13:00:46;83.30;;;52.03;;
49015;SDS011;34830;44.064;12.566;2023-12-29T13:03:13;76.68;;;51.28;;
49015;SDS011;34830;44.064;12.566;2023-12-29T13:05:40;76.82;;;52.00;;
49015;SDS011;34830;44.064;12.566;2023-12-29T13:08:06;75.50;;;52.10;;
49015;SDS011;34830;44.064;12.566;2023-12-29T13:10:32;76.82;;;51.78;;
49015;SDS011;34830;44.064;12.566;2023-12-29T13:12:58;81.78;;;52.22;;
49015;SDS011;34830;44.064;12.566;2023-12-29T13:15:24;75.78;;;50.67;;
49015;SDS011;34830;44.064;12.566;2023-12-29T13:17:53;75.00;;;50.63;;
49015;SDS011;34830;44.064;12.566;2023-12-29T13:20:20;77.60;;;51.40;;
49015;SDS011;34830;44.064;12.566;2023-12-29T13:22:46;80.32;;;51.15;;
49015;SDS011;34830;44.064;12.566;2023-12-29T13:25:17;74.38;;;51.20;;
49015;SDS011;34830;44.064;12.566;2023-12-29T13:27:44;85.03;;;53.95;;
49015;SDS011;34830;44.064;12.566;2023-12-29T13:30:11;78.25;;;52.15;;
49015;SDS011;34830;44.064;12.566;2023-12-29T13:32:40;73.38;;;50.15;;
49015;SDS011;34830;44.064;12.566;2023-12-29T13:35:09;75.25;;;49.72;;
49015;SDS011;34830;44.064;12.566;2023-12-29T13:40:45;76.00;;;51.05;;
49015;SDS011;34830;44.064;12.566;2023-12-29T13:43:19;74.28;;;49.92;;
49015;SDS011;34830;44.064;12.566;2023-12-29T13:45:46;78.97;;;54.15;;
49015;SDS011;34830;44.064;12.566;2023-12-29T13:48:12;76.22;;;52.53;;
49015;SDS011;34830;44.064;12.566;2023-12-29T13:50:40;80.00;;;51.45;;
49015;SDS011;34830;44.064;12.566;2023-12-29T13:53:18;78.30;;;51.72;;
49015;SDS011;34830;44.064;12.566;2023-12-29T13:55:44;83.78;;;51.92;;
49015;SDS011;34830;44.064;12.566;2023-12-29T13:58:12;78.68;;;50.83;;
49015;SDS011;34830;44.064;12.566;2023-12-29T14:00:41;76.50;;;52.53;;
49015;SDS011;34830;44.064;12.566;2023-12-29T14:03:15;77.07;;;49.35;;
49015;SDS011;34830;44.064;12.566;2023-12-29T14:05:56;78.30;;;49.85;;
49015;SDS011;34830;44.064;12.566;2023-12-29T14:08:26;76.55;;;48.80;;
49015;SDS011;34830;44.064;12.566;2023-12-29T14:10:58;77.38;;;50.97;;
49015;SDS011;34830;44.064;12.566;2023-12-29T14:13:24;79.88;;;50.97;;
49015;SDS011;34830;44.064;12.566;2023-12-29T14:15:51;75.20;;;51.28;;
49015;SDS011;34830;44.064;12.566;2023-12-29T14:18:37;79.03;;;52.13;;
49015;SDS011;34830;44.064;12.566;2023-12-29T14:21:29;82.07;;;51.78;;
49015;SDS011;34830;44.064;12.566;2023-12-29T14:24:06;81.07;;;50.92;;
49015;SDS011;34830;44.064;12.566;2023-12-29T14:26:38;78.20;;;53.80;;
49015;SDS011;34830;44.064;12.566;2023-12-29T14:29:07;82.70;;;52.15;;
49015;SDS011;34830;44.064;12.566;2023-12-29T14:31:44;75.95;;;51.95;;
49015;SDS011;34830;44.064;12.566;2023-12-29T14:34:11;82.63;;;51.53;;
49015;SDS011;34830;44.064;12.566;2023-12-29T14:36:38;75.93;;;51.47;;
49015;SDS011;34830;44.064;12.566;2023-12-29T14:39:08;84.53;;;53.75;;
49015;SDS011;34830;44.064;12.566;2023-12-29T14:41:37;88.65;;;53.75;;